Time;durP1;ratioP1;P1;durP2;ratioP2;P2;SDS_P1;SDS_P2;PMS_P1;PMS_P2;Temp;Humidity;BMP_temperature;BMP_pressure;BME280_temperature;BME280_humidity;BME280_pressure;Samples;Min_cycle;Max_cycle;Signal;HPM_P1;HPM_P2
2022/06/03 00:00:25;;;;;;;8.33;3.73;;;;;;;;;;4944788;29;21215;-74
2022/06/03 00:03:02;;;;;;;7.10;3.13;;;;;;;;;;4949947;28;20466;-73
2022/06/03 00:05:46;;;;;;;3.60;3.50;;;;;;;;;;4948513;28;20542;-73
2022/06/03 00:08:12;;;;;;;3.40;3.30;;;;;;;;;;4944204;28;20573;-73
2022/06/03 00:10:41;;;;;;;4.60;3.10;;;;;;;;;;4947769;28;20638;-73
2022/06/03 00:13:10;;;;;;;3.47;3.37;;;;;;;;;;4945847;29;20233;-73
2022/06/03 00:15:51;;;;;;;3.30;3.20;;;;;;;;;;4948658;28;20423;-72
2022/06/03 00:18:35;;;;;;;3.60;3.30;;;;;;;;;;4952345;28;20439;-73
2022/06/03 00:21:07;;;;;;;3.73;3.43;;;;;;;;;;4951584;28;20500;-73
2022/06/03 00:23:36;;;;;;;3.27;3.07;;;;;;;;;;4967630;28;20492;-73
2022/06/03 00:26:14;;;;;;;2.83;2.83;;;;;;;;;;4969155;28;20491;-73
2022/06/03 00:28:49;;;;;;;4.13;3.70;;;;;;;;;;4953351;28;20442;-73
2022/06/03 00:31:15;;;;;;;3.00;2.80;;;;;;;;;;4949870;28;20673;-73
2022/06/03 00:33:41;;;;;;;3.43;3.13;;;;;;;;;;4953171;28;20795;-74
2022/06/03 00:36:27;;;;;;;3.97;3.50;;;;;;;;;;4950272;28;20811;-73
2022/06/03 00:38:53;;;;;;;3.30;3.13;;;;;;;;;;4964672;28;20195;-73
2022/06/03 00:41:25;;;;;;;3.60;3.30;;;;;;;;;;4951838;28;20435;-73
2022/06/03 00:44:10;;;;;;;3.50;3.20;;;;;;;;;;4950942;28;20565;-73
2022/06/03 00:46:42;;;;;;;4.03;3.27;;;;;;;;;;4949884;28;20501;-73
2022/06/03 00:49:23;;;;;;;3.83;3.30;;;;;;;;;;4949558;29;20442;-73
2022/06/03 00:52:07;;;;;;;2.97;2.30;;;;;;;;;;4948317;28;20522;-72
2022/06/03 00:54:52;;;;;;;2.93;2.83;;;;;;;;;;4950766;28;20440;-73
2022/06/03 00:57:21;;;;;;;9.83;2.80;;;;;;;;;;4951630;28;20529;-74
2022/06/03 00:59:56;;;;;;;6.23;3.20;;;;;;;;;;4965373;28;20940;-72
2022/06/03 01:02:28;;;;;;;3.60;2.97;;;;;;;;;;4951191;28;20955;-74
2022/06/03 01:05:00;;;;;;;3.43;2.60;;;;;;;;;;4964382;28;20927;-75
2022/06/03 01:07:29;;;;;;;3.57;2.90;;;;;;;;;;4952880;28;20439;-73
2022/06/03 01:10:12;;;;;;;2.53;2.33;;;;;;;;;;4949605;28;20914;-73
2022/06/03 01:12:50;;;;;;;3.03;3.03;;;;;;;;;;4949793;28;20452;-73
2022/06/03 01:15:19;;;;;;;3.30;3.00;;;;;;;;;;4950433;28;20538;-73
2022/06/03 01:17:54;;;;;;;3.10;3.00;;;;;;;;;;4949909;28;20418;-73
2022/06/03 01:20:39;;;;;;;6.77;2.80;;;;;;;;;;4951136;28;20449;-73
2022/06/03 01:23:14;;;;;;;2.63;2.63;;;;;;;;;;4949230;28;20427;-73
2022/06/03 01:25:58;;;;;;;3.23;2.90;;;;;;;;;;4948037;28;20525;-75
2022/06/03 01:28:32;;;;;;;3.40;3.13;;;;;;;;;;4950238;28;20966;-73
2022/06/03 01:31:01;;;;;;;3.20;3.10;;;;;;;;;;4965761;28;20526;-73
2022/06/03 01:33:33;;;;;;;2.77;2.67;;;;;;;;;;4949512;28;20470;-73
2022/06/03 01:36:17;;;;;;;3.13;2.93;;;;;;;;;;4965635;28;20860;-73
2022/06/03 01:39:09;;;;;;;2.57;2.57;;;;;;;;;;4949080;28;20490;-73
2022/06/03 01:41:43;;;;;;;3.63;3.43;;;;;;;;;;4961535;28;20447;-75
2022/06/03 01:44:12;;;;;;;3.03;2.73;;;;;;;;;;4953535;28;20434;-74
2022/06/03 01:47:03;;;;;;;5.60;2.67;;;;;;;;;;4948861;28;21050;-74
2022/06/03 01:49:32;;;;;;;7.93;3.33;;;;;;;;;;4950133;28;20909;-72
2022/06/03 01:52:13;;;;;;;3.13;3.03;;;;;;;;;;4949420;29;20592;-73
2022/06/03 01:55:07;;;;;;;7.00;2.47;;;;;;;;;;4965759;28;20434;-73
2022/06/03 01:57:33;;;;;;;3.03;2.37;;;;;;;;;;4951964;28;20447;-73
2022/06/03 02:00:09;;;;;;;2.80;2.70;;;;;;;;;;4962735;28;20786;-72
2022/06/03 02:02:42;;;;;;;2.03;2.03;;;;;;;;;;4948404;28;20355;-73
2022/06/03 02:05:35;;;;;;;2.90;2.90;;;;;;;;;;4950981;28;20434;-73
2022/06/03 02:08:16;;;;;;;3.17;2.77;;;;;;;;;;4965035;28;20449;-73
2022/06/03 02:10:45;;;;;;;3.37;3.10;;;;;;;;;;4950769;28;20525;-73
2022/06/03 02:13:30;;;;;;;10.00;3.60;;;;;;;;;;4951725;28;20426;-72
2022/06/03 02:16:14;;;;;;;3.87;3.70;;;;;;;;;;4950528;28;20526;-73
2022/06/03 02:18:52;;;;;;;3.33;3.00;;;;;;;;;;4949806;28;20438;-74
2022/06/03 02:21:27;;;;;;;5.20;3.40;;;;;;;;;;4952059;28;20434;-73
2022/06/03 02:24:12;;;;;;;4.30;3.50;;;;;;;;;;4951713;28;20565;-73
2022/06/03 02:26:41;;;;;;;5.50;3.60;;;;;;;;;;4951390;28;20450;-74
2022/06/03 02:32:11;;;;;;;3.77;3.67;;;;;;;;;;4951930;28;20486;-73
2022/06/03 02:34:37;;;;;;;4.47;3.73;;;;;;;;;;4960410;28;20849;-75
2022/06/03 02:37:09;;;;;;;3.47;3.37;;;;;;;;;;4948168;28;20683;-73
2022/06/03 02:39:52;;;;;;;4.27;3.97;;;;;;;;;;4950937;28;20431;-73
2022/06/03 02:42:27;;;;;;;3.40;3.10;;;;;;;;;;4951076;28;20446;-74
2022/06/03 02:44:53;;;;;;;3.37;3.07;;;;;;;;;;4949640;28;20438;-72
2022/06/03 02:47:19;;;;;;;3.10;3.10;;;;;;;;;;4947846;28;20528;-73
2022/06/03 02:50:04;;;;;;;3.63;3.17;;;;;;;;;;4950436;28;20577;-73
2022/06/03 02:52:45;;;;;;;3.20;3.10;;;;;;;;;;4947849;28;20194;-74
2022/06/03 02:55:27;;;;;;;4.70;3.33;;;;;;;;;;4949790;28;20780;-73
2022/06/03 02:58:21;;;;;;;3.63;3.47;;;;;;;;;;4963404;28;20435;-73
2022/06/03 03:01:05;;;;;;;3.87;3.67;;;;;;;;;;4946966;28;20526;-72
2022/06/03 03:03:41;;;;;;;3.50;3.40;;;;;;;;;;4949487;28;20445;-73
2022/06/03 03:06:07;;;;;;;6.83;3.40;;;;;;;;;;4949543;28;20454;-73
2022/06/03 03:08:51;;;;;;;3.20;3.10;;;;;;;;;;4964337;28;20955;-72
2022/06/03 03:11:45;;;;;;;3.43;3.33;;;;;;;;;;4951104;28;20270;-72
2022/06/03 03:14:11;;;;;;;3.67;3.57;;;;;;;;;;4948638;28;20495;-72
2022/06/03 03:16:52;;;;;;;7.03;3.43;;;;;;;;;;4950449;28;20435;-74
2022/06/03 03:19:36;;;;;;;3.70;3.50;;;;;;;;;;4950608;28;21017;-72
2022/06/03 03:22:12;;;;;;;2.77;2.60;;;;;;;;;;4948448;28;20426;-72
2022/06/03 03:24:57;;;;;;;3.90;3.00;;;;;;;;;;4946236;28;20450;-73
2022/06/03 03:27:35;;;;;;;3.03;2.80;;;;;;;;;;4949703;28;20470;-72
2022/06/03 03:30:01;;;;;;;7.53;3.13;;;;;;;;;;4949212;28;20458;-74
2022/06/03 03:32:46;;;;;;;3.27;3.17;;;;;;;;;;4951304;28;20446;-72
2022/06/03 03:35:21;;;;;;;3.70;3.60;;;;;;;;;;4950084;28;20242;-74
2022/06/03 03:38:02;;;;;;;3.50;3.20;;;;;;;;;;4949034;28;20434;-72
2022/06/03 03:40:40;;;;;;;3.80;3.60;;;;;;;;;;4947438;28;20443;-72
2022/06/03 03:43:24;;;;;;;3.10;3.00;;;;;;;;;;4951555;28;20516;-73
2022/06/03 03:45:53;;;;;;;2.87;2.70;;;;;;;;;;4948922;28;21027;-72
2022/06/03 03:48:29;;;;;;;4.07;3.87;;;;;;;;;;4950753;28;20430;-74
2022/06/03 03:51:13;;;;;;;3.60;3.50;;;;;;;;;;4950210;28;20978;-73
2022/06/03 03:53:58;;;;;;;3.67;3.53;;;;;;;;;;4950619;28;20846;-73
2022/06/03 03:56:30;;;;;;;3.50;3.20;;;;;;;;;;4946900;28;20435;-74
2022/06/03 03:59:12;;;;;;;3.83;3.53;;;;;;;;;;4950636;28;20449;-73
2022/06/03 04:01:38;;;;;;;3.53;3.40;;;;;;;;;;4951177;28;20566;-74
2022/06/03 04:04:06;;;;;;;3.87;3.53;;;;;;;;;;4949333;28;20473;-73
2022/06/03 04:06:51;;;;;;;7.50;3.80;;;;;;;;;;4949162;28;20884;-73
2022/06/03 04:09:35;;;;;;;3.40;3.30;;;;;;;;;;4948724;28;20449;-73
2022/06/03 04:12:04;;;;;;;3.60;3.50;;;;;;;;;;4942444;28;20498;-73
2022/06/03 04:14:40;;;;;;;3.60;3.40;;;;;;;;;;4944545;28;20436;-74
2022/06/03 04:17:21;;;;;;;3.50;3.23;;;;;;;;;;4948177;28;20466;-73
2022/06/03 04:19:47;;;;;;;3.97;3.77;;;;;;;;;;4946442;28;20529;-74
2022/06/03 04:22:31;;;;;;;4.10;3.67;;;;;;;;;;4947581;28;20525;-72
2022/06/03 04:24:57;;;;;;;7.73;4.00;;;;;;;;;;4948556;28;20644;-75
2022/06/03 04:27:29;;;;;;;14.97;4.50;;;;;;;;;;4946829;28;20465;-76
2022/06/03 04:30:11;;;;;;;3.73;3.63;;;;;;;;;;4950437;28;20443;-74
2022/06/03 04:32:59;;;;;;;5.77;3.53;;;;;;;;;;4947579;28;20940;-75
2022/06/03 04:35:28;;;;;;;3.53;3.43;;;;;;;;;;4949881;28;20453;-74
2022/06/03 04:38:12;;;;;;;3.37;3.27;;;;;;;;;;4947670;28;20950;-75
2022/06/03 04:40:58;;;;;;;5.63;3.63;;;;;;;;;;4948087;28;20427;-73
2022/06/03 04:43:27;;;;;;;3.97;3.73;;;;;;;;;;4947809;28;20509;-75
2022/06/03 04:46:12;;;;;;;3.77;3.20;;;;;;;;;;4948948;28;20450;-75
2022/06/03 04:48:40;;;;;;;3.53;3.33;;;;;;;;;;4947934;28;20474;-73
2022/06/03 04:51:24;;;;;;;4.93;3.50;;;;;;;;;;4950380;28;20480;-73
2022/06/03 04:53:50;;;;;;;10.07;3.70;;;;;;;;;;4961832;28;20439;-77
2022/06/03 04:56:36;;;;;;;3.73;3.40;;;;;;;;;;4949141;28;20427;-74
2022/06/03 04:59:21;;;;;;;4.93;3.83;;;;;;;;;;4946178;28;20438;-76
2022/06/03 05:01:53;;;;;;;4.57;4.13;;;;;;;;;;4948345;28;20624;-74
2022/06/03 05:04:38;;;;;;;8.63;4.00;;;;;;;;;;4950551;28;20443;-74
2022/06/03 05:07:06;;;;;;;3.93;3.47;;;;;;;;;;4950848;28;20549;-74
2022/06/03 05:09:51;;;;;;;4.30;4.10;;;;;;;;;;4950302;28;20485;-74
2022/06/03 05:12:33;;;;;;;3.50;3.20;;;;;;;;;;4954203;28;20489;-74
2022/06/03 05:15:24;;;;;;;4.53;4.17;;;;;;;;;;4969229;28;20431;-74
2022/06/03 05:18:05;;;;;;;9.60;4.00;;;;;;;;;;4953750;28;20434;-74
2022/06/03 05:20:43;;;;;;;4.50;4.10;;;;;;;;;;4953823;28;20430;-74
2022/06/03 05:23:24;;;;;;;4.10;3.90;;;;;;;;;;4953216;28;20498;-74
2022/06/03 05:25:50;;;;;;;3.97;3.63;;;;;;;;;;4953635;28;20463;-75
2022/06/03 05:28:19;;;;;;;4.57;4.00;;;;;;;;;;4951671;28;20871;-76
2022/06/03 05:30:53;;;;;;;4.07;3.87;;;;;;;;;;4951086;28;20871;-74
2022/06/03 05:33:38;;;;;;;4.67;4.13;;;;;;;;;;4949258;28;20506;-74
2022/06/03 05:36:17;;;;;;;4.10;3.70;;;;;;;;;;4948900;28;20468;-73
2022/06/03 05:38:46;;;;;;;5.40;4.90;;;;;;;;;;4951268;28;20447;-75
2022/06/03 05:42:23;;;;;;;7.90;4.43;;;;;;;;;;4952087;28;20435;-73
2022/06/03 05:44:22;;;;;;;4.30;3.90;;;;;;;;;;4948244;28;20915;-74
2022/06/03 05:47:02;;;;;;;4.37;4.17;;;;;;;;;;4947378;28;20486;-73
2022/06/03 05:49:31;;;;;;;2.70;2.70;;;;;;;;;;4951976;28;20490;-74
2022/06/03 05:52:03;;;;;;;3.80;3.50;;;;;;;;;;4966219;28;20890;-73
2022/06/03 05:54:32;;;;;;;8.83;3.77;;;;;;;;;;4948097;28;20440;-79
2022/06/03 05:57:17;;;;;;;4.60;3.13;;;;;;;;;;4952376;28;20453;-73
2022/06/03 05:59:42;;;;;;;3.13;2.93;;;;;;;;;;4964660;28;20445;-78
2022/06/03 06:02:19;;;;;;;4.37;3.53;;;;;;;;;;4951662;28;20573;-81
2022/06/03 06:05:03;;;;;;;3.73;3.53;;;;;;;;;;4948882;28;20190;-77
2022/06/03 06:07:32;;;;;;;3.60;3.30;;;;;;;;;;4951700;28;20325;-80
2022/06/03 06:10:15;;;;;;;2.80;2.80;;;;;;;;;;4950943;28;20549;-73
2022/06/03 06:13:01;;;;;;;3.50;3.23;;;;;;;;;;4951877;28;20465;-77
2022/06/03 06:15:42;;;;;;;4.17;4.00;;;;;;;;;;4952004;28;20419;-76
2022/06/03 06:18:26;;;;;;;3.57;3.37;;;;;;;;;;4950182;28;20459;-75
2022/06/03 06:20:57;;;;;;;4.40;3.27;;;;;;;;;;4950040;28;21018;-72
2022/06/03 06:23:41;;;;;;;5.07;3.50;;;;;;;;;;4967049;28;21046;-75
2022/06/03 06:26:07;;;;;;;6.23;3.40;;;;;;;;;;4950946;28;20894;-74
2022/06/03 06:28:55;;;;;;;3.50;3.20;;;;;;;;;;4948234;29;20602;-73
2022/06/03 06:31:40;;;;;;;3.80;3.50;;;;;;;;;;4945451;28;20541;-73
2022/06/03 06:34:15;;;;;;;2.93;2.83;;;;;;;;;;4949624;28;20455;-73
2022/06/03 06:37:00;;;;;;;3.70;3.60;;;;;;;;;;4944933;28;20526;-72
2022/06/03 06:39:35;;;;;;;4.37;3.90;;;;;;;;;;4962126;28;20465;-71
2022/06/03 06:42:11;;;;;;;2.83;2.80;;;;;;;;;;4948837;28;20950;-76
2022/06/03 06:44:49;;;;;;;4.37;3.97;;;;;;;;;;4950169;28;21109;-76
2022/06/03 06:47:33;;;;;;;6.47;3.40;;;;;;;;;;4947250;28;20546;-76
2022/06/03 06:50:12;;;;;;;3.47;3.10;;;;;;;;;;4965286;28;20595;-77
2022/06/03 06:53:00;;;;;;;3.53;3.23;;;;;;;;;;4948571;28;20895;-74
2022/06/03 06:55:26;;;;;;;3.20;3.00;;;;;;;;;;4949799;28;20552;-73
2022/06/03 06:57:55;;;;;;;3.40;3.20;;;;;;;;;;4950231;28;20523;-74
2022/06/03 07:00:25;;;;;;;2.80;2.80;;;;;;;;;;4948223;28;20253;-73
2022/06/03 07:02:58;;;;;;;3.33;3.03;;;;;;;;;;4949132;28;20420;-75
2022/06/03 07:05:43;;;;;;;3.00;2.70;;;;;;;;;;4950720;28;20443;-74
2022/06/03 07:08:09;;;;;;;2.57;2.57;;;;;;;;;;4947620;28;20504;-74
2022/06/03 07:10:45;;;;;;;2.90;2.80;;;;;;;;;;4950035;28;20458;-73
2022/06/03 07:13:13;;;;;;;3.80;2.70;;;;;;;;;;4951274;29;20470;-73
2022/06/03 07:15:59;;;;;;;3.90;2.90;;;;;;;;;;4950937;28;20435;-74
2022/06/03 07:21:28;;;;;;;3.37;3.23;;;;;;;;;;4951242;28;20421;-73
2022/06/03 07:23:57;;;;;;;2.33;2.23;;;;;;;;;;4950003;28;20454;-75
2022/06/03 07:26:36;;;;;;;17.37;3.10;;;;;;;;;;4945125;28;20436;-73
2022/06/03 07:29:15;;;;;;;3.80;3.17;;;;;;;;;;4942132;28;20438;-76
2022/06/03 07:31:44;;;;;;;2.97;2.83;;;;;;;;;;4947286;28;20533;-74
2022/06/03 07:34:13;;;;;;;2.57;2.57;;;;;;;;;;4947733;28;20975;-72
2022/06/03 07:36:45;;;;;;;2.93;2.83;;;;;;;;;;4949433;28;20448;-71
2022/06/03 07:39:14;;;;;;;8.97;2.80;;;;;;;;;;4948852;28;20439;-72
2022/06/03 07:41:44;;;;;;;3.17;3.00;;;;;;;;;;4949061;28;20526;-74
2022/06/03 07:44:15;;;;;;;6.07;2.77;;;;;;;;;;4948550;28;20454;-78
2022/06/03 07:46:49;;;;;;;3.20;3.00;;;;;;;;;;4947377;28;20566;-75
2022/06/03 07:49:15;;;;;;;3.50;3.40;;;;;;;;;;4948418;28;20769;-74
2022/06/03 07:51:44;;;;;;;3.13;2.93;;;;;;;;;;4948583;28;20486;-74
2022/06/03 07:54:22;;;;;;;3.47;3.30;;;;;;;;;;4964672;28;20454;-74
2022/06/03 07:56:49;;;;;;;3.70;3.50;;;;;;;;;;4947974;28;20473;-74
2022/06/03 07:59:17;;;;;;;3.53;3.33;;;;;;;;;;4947137;28;20427;-77
2022/06/03 08:01:44;;;;;;;3.40;3.20;;;;;;;;;;4946021;28;20445;-74
2022/06/03 08:04:25;;;;;;;7.70;2.97;;;;;;;;;;4949090;28;21803;-79
2022/06/03 08:12:42;;;;;;;3.63;3.33;;;;;;;;;;4943883;29;20438;-73
2022/06/03 08:15:15;;;;;;;3.90;3.23;;;;;;;;;;4946884;28;20522;-75
2022/06/03 08:17:42;;;;;;;4.30;3.77;;;;;;;;;;4943286;28;20466;-73
2022/06/03 08:20:08;;;;;;;4.43;3.90;;;;;;;;;;4947813;28;20431;-78
2022/06/03 08:22:34;;;;;;;3.87;3.60;;;;;;;;;;4948423;28;20442;-73
2022/06/03 08:25:00;;;;;;;3.90;3.60;;;;;;;;;;4945589;29;20506;-77
2022/06/03 08:27:30;;;;;;;4.33;3.40;;;;;;;;;;4947281;28;20506;-75
2022/06/03 08:30:01;;;;;;;3.53;3.43;;;;;;;;;;4943184;28;20442;-74
2022/06/03 08:32:36;;;;;;;7.83;3.40;;;;;;;;;;4947960;28;20497;-78
2022/06/03 08:35:07;;;;;;;4.27;3.27;;;;;;;;;;4961728;28;20491;-75
2022/06/03 08:37:34;;;;;;;3.27;3.17;;;;;;;;;;4948726;28;20561;-77
2022/06/03 08:40:01;;;;;;;3.53;3.20;;;;;;;;;;4950857;28;20442;-78
2022/06/03 08:42:36;;;;;;;3.40;3.10;;;;;;;;;;4954309;28;20963;-77
2022/06/03 08:45:02;;;;;;;3.33;3.13;;;;;;;;;;4967529;28;20805;-76
2022/06/03 08:47:31;;;;;;;5.32;2.80;;;;;;;;;;4952057;28;21022;-75
2022/06/03 08:50:06;;;;;;;2.77;2.77;;;;;;;;;;4952253;28;20222;-78
2022/06/03 08:52:41;;;;;;;2.83;2.63;;;;;;;;;;4953405;28;20820;-74
2022/06/03 08:55:26;;;;;;;3.37;3.07;;;;;;;;;;4952369;28;20445;-73
2022/06/03 08:57:54;;;;;;;3.90;3.63;;;;;;;;;;4948372;28;20506;-74
2022/06/03 09:00:23;;;;;;;3.20;2.80;;;;;;;;;;4949360;28;20494;-77
2022/06/03 09:02:53;;;;;;;3.83;3.40;;;;;;;;;;4952956;28;20438;-74
2022/06/03 09:05:22;;;;;;;4.50;2.40;;;;;;;;;;4950530;28;20453;-73
2022/06/03 09:07:54;;;;;;;4.43;3.87;;;;;;;;;;4952437;28;20446;-77
2022/06/03 09:10:24;;;;;;;3.33;2.60;;;;;;;;;;4951549;28;20501;-76
2022/06/03 09:12:56;;;;;;;3.20;2.83;;;;;;;;;;4953681;28;20450;-75
2022/06/03 09:15:25;;;;;;;3.00;2.90;;;;;;;;;;4949616;28;20518;-73
2022/06/03 09:18:04;;;;;;;3.00;2.80;;;;;;;;;;4949403;28;20426;-75
2022/06/03 09:20:33;;;;;;;3.37;2.83;;;;;;;;;;4946763;28;20435;-72
2022/06/03 09:23:01;;;;;;;13.20;3.50;;;;;;;;;;4953959;28;20435;-76
2022/06/03 09:25:31;;;;;;;3.37;3.10;;;;;;;;;;4965127;28;20434;-73
2022/06/03 09:27:57;;;;;;;4.93;3.20;;;;;;;;;;4950407;28;20451;-74
2022/06/03 09:30:31;;;;;;;3.80;3.63;;;;;;;;;;4950907;28;20442;-74
2022/06/03 09:32:58;;;;;;;3.97;3.77;;;;;;;;;;4952761;28;20821;-74
2022/06/03 09:35:27;;;;;;;3.43;3.30;;;;;;;;;;4949552;28;20446;-73
2022/06/03 09:37:55;;;;;;;4.07;3.73;;;;;;;;;;4953656;28;20447;-73
2022/06/03 09:40:22;;;;;;;4.17;3.83;;;;;;;;;;4952337;28;20434;-73
2022/06/03 09:42:56;;;;;;;3.30;3.20;;;;;;;;;;4965395;28;20415;-76
2022/06/03 09:45:23;;;;;;;7.13;4.00;;;;;;;;;;4951072;28;20529;-77
2022/06/03 09:47:50;;;;;;;5.33;4.00;;;;;;;;;;4951067;28;20971;-76
2022/06/03 09:50:17;;;;;;;4.30;3.77;;;;;;;;;;4952679;28;20597;-76
2022/06/03 09:52:43;;;;;;;4.23;3.70;;;;;;;;;;4951247;28;20839;-76
2022/06/03 09:55:24;;;;;;;7.33;3.53;;;;;;;;;;4947755;28;20454;-73
2022/06/03 09:57:50;;;;;;;5.43;4.40;;;;;;;;;;4950979;28;20450;-73
2022/06/03 10:00:21;;;;;;;4.37;3.87;;;;;;;;;;4966842;28;21671;-74
2022/06/03 10:02:47;;;;;;;6.27;5.77;;;;;;;;;;4952334;28;20473;-76
2022/06/03 10:05:16;;;;;;;8.40;6.80;;;;;;;;;;4951338;28;20435;-73
2022/06/03 10:07:42;;;;;;;8.00;6.23;;;;;;;;;;4949053;28;20446;-74
2022/06/03 10:12:56;;;;;;;5.33;4.60;;;;;;;;;;4950738;28;20474;-74
2022/06/03 10:15:39;;;;;;;10.53;8.40;;;;;;;;;;4949482;28;20437;-76
2022/06/03 10:18:24;;;;;;;10.70;6.43;;;;;;;;;;4951190;28;20951;-76
2022/06/03 10:20:51;;;;;;;8.20;5.63;;;;;;;;;;4952670;28;20932;-73
2022/06/03 10:23:20;;;;;;;9.77;4.93;;;;;;;;;;4947856;28;20549;-76
2022/06/03 10:25:49;;;;;;;10.60;4.37;;;;;;;;;;4951476;28;20439;-75
2022/06/03 10:28:15;;;;;;;4.13;3.37;;;;;;;;;;4949342;28;20954;-73
2022/06/03 10:30:42;;;;;;;5.57;3.90;;;;;;;;;;4949517;28;20474;-73
2022/06/03 10:33:34;;;;;;;4.67;3.83;;;;;;;;;;4952694;28;20423;-76
2022/06/03 10:36:01;;;;;;;4.03;3.83;;;;;;;;;;4963634;28;20462;-76
2022/06/03 10:38:31;;;;;;;3.23;2.70;;;;;;;;;;4949045;28;20883;-74
2022/06/03 10:40:57;;;;;;;4.67;4.33;;;;;;;;;;4949090;28;20942;-77
2022/06/03 10:43:24;;;;;;;9.83;3.80;;;;;;;;;;4950730;28;20735;-76
2022/06/03 10:45:50;;;;;;;2.50;2.20;;;;;;;;;;4949165;28;20584;-73
2022/06/03 10:48:21;;;;;;;5.17;4.40;;;;;;;;;;4948338;28;20530;-76
2022/06/03 10:50:47;;;;;;;3.13;3.13;;;;;;;;;;4950543;28;20471;-74
2022/06/03 11:01:31;;;;;;;5.00;4.60;;;;;;;;;;4949886;28;20425;-74
2022/06/03 11:03:58;;;;;;;4.90;4.40;;;;;;;;;;4951030;28;20894;-74
2022/06/03 11:06:25;;;;;;;15.20;5.37;;;;;;;;;;4950990;28;20465;-74
2022/06/03 11:08:56;;;;;;;8.60;5.03;;;;;;;;;;4947277;28;20943;-75
2022/06/03 11:11:44;;;;;;;7.33;5.37;;;;;;;;;;4944448;28;20510;-75
2022/06/03 11:14:16;;;;;;;4.33;4.03;;;;;;;;;;4951829;28;20431;-74
2022/06/03 11:16:49;;;;;;;5.53;5.03;;;;;;;;;;4945081;29;20426;-76
2022/06/03 11:19:19;;;;;;;6.63;5.60;;;;;;;;;;4951272;28;20458;-76
2022/06/03 11:21:45;;;;;;;5.63;5.23;;;;;;;;;;4950346;28;20522;-76
2022/06/03 11:24:11;;;;;;;5.97;5.40;;;;;;;;;;4951584;28;20411;-75
2022/06/03 11:26:42;;;;;;;5.30;5.10;;;;;;;;;;4950741;28;20858;-76
2022/06/03 11:29:25;;;;;;;5.23;4.80;;;;;;;;;;4960932;28;20530;-74
2022/06/03 11:31:52;;;;;;;5.50;5.00;;;;;;;;;;4949302;28;20486;-75
2022/06/03 11:34:18;;;;;;;11.70;5.07;;;;;;;;;;4949783;28;20435;-74
2022/06/03 11:36:53;;;;;;;7.23;5.90;;;;;;;;;;4946446;28;20449;-74
2022/06/03 11:39:28;;;;;;;4.93;4.73;;;;;;;;;;4945260;29;20434;-76
2022/06/03 11:41:55;;;;;;;5.07;4.63;;;;;;;;;;4949006;28;20439;-75
2022/06/03 11:44:21;;;;;;;5.23;4.77;;;;;;;;;;4947361;28;21006;-73
2022/06/03 11:46:51;;;;;;;4.87;4.50;;;;;;;;;;4950841;28;20478;-73
2022/06/03 11:49:21;;;;;;;5.70;5.50;;;;;;;;;;4947911;28;20776;-72
2022/06/03 11:51:48;;;;;;;5.83;4.77;;;;;;;;;;4948317;29;20490;-72
2022/06/03 11:54:16;;;;;;;9.47;5.23;;;;;;;;;;4948149;28;20672;-74
2022/06/03 11:56:44;;;;;;;5.83;5.43;;;;;;;;;;4946619;28;20520;-72
2022/06/03 11:59:13;;;;;;;5.27;4.97;;;;;;;;;;4946145;28;20983;-75
2022/06/03 12:01:51;;;;;;;11.57;5.87;;;;;;;;;;4946687;28;20434;-72
2022/06/03 12:04:27;;;;;;;5.00;4.70;;;;;;;;;;4948102;28;20920;-75
2022/06/03 12:07:21;;;;;;;5.10;4.70;;;;;;;;;;4949493;28;20434;-75
2022/06/03 12:09:59;;;;;;;6.67;5.20;;;;;;;;;;4937143;28;20999;-74
2022/06/03 12:15:26;;;;;;;4.57;4.17;;;;;;;;;;4951603;28;20847;-72
2022/06/03 12:17:52;;;;;;;5.80;5.30;;;;;;;;;;4954800;28;20422;-72
2022/06/03 12:20:31;;;;;;;4.97;4.57;;;;;;;;;;4952331;28;20445;-72
2022/06/03 12:22:57;;;;;;;4.30;4.10;;;;;;;;;;4951135;28;20444;-71
2022/06/03 12:25:32;;;;;;;4.47;4.20;;;;;;;;;;4952878;28;20473;-71
2022/06/03 12:28:00;;;;;;;4.40;4.03;;;;;;;;;;4953067;28;20453;-72
2022/06/03 12:30:34;;;;;;;4.50;3.87;;;;;;;;;;4954333;28;20423;-76
2022/06/03 12:33:07;;;;;;;5.90;3.67;;;;;;;;;;4950008;28;20438;-72
2022/06/03 12:35:48;;;;;;;4.40;4.20;;;;;;;;;;4946271;28;20518;-76
2022/06/03 12:38:20;;;;;;;4.93;3.60;;;;;;;;;;4954408;28;20458;-73
2022/06/03 12:40:53;;;;;;;4.10;3.90;;;;;;;;;;4953192;28;20442;-72
2022/06/03 12:43:23;;;;;;;3.97;3.77;;;;;;;;;;4953099;28;20541;-70
2022/06/03 12:46:00;;;;;;;4.53;4.20;;;;;;;;;;4950186;28;20450;-73
2022/06/03 12:48:51;;;;;;;3.20;3.20;;;;;;;;;;4966949;28;20573;-72
2022/06/03 12:51:23;;;;;;;3.30;3.30;;;;;;;;;;4941093;29;20791;-72
2022/06/03 12:53:50;;;;;;;3.70;3.60;;;;;;;;;;4953870;28;20443;-73
2022/06/03 12:56:25;;;;;;;4.13;3.93;;;;;;;;;;4950760;28;20458;-72
2022/06/03 12:58:59;;;;;;;5.73;3.80;;;;;;;;;;4951319;28;20907;-75
2022/06/03 13:01:41;;;;;;;3.80;3.60;;;;;;;;;;4949186;28;20434;-73
2022/06/03 13:04:26;;;;;;;6.47;4.40;;;;;;;;;;4952073;28;20442;-74
2022/06/03 13:07:11;;;;;;;3.63;3.37;;;;;;;;;;4945810;28;20984;-73
2022/06/03 13:09:57;;;;;;;3.70;3.60;;;;;;;;;;4948500;29;20497;-75
2022/06/03 13:12:32;;;;;;;4.53;3.70;;;;;;;;;;4949364;28;20548;-77
2022/06/03 13:15:19;;;;;;;3.00;2.80;;;;;;;;;;4950745;28;20442;-73
2022/06/03 13:18:18;;;;;;;3.60;3.40;;;;;;;;;;4948540;28;20440;-73
2022/06/03 13:21:13;;;;;;;11.83;4.83;;;;;;;;;;4950858;28;20438;-72
2022/06/03 13:23:45;;;;;;;5.23;4.47;;;;;;;;;;4943092;28;20494;-72
2022/06/03 13:26:27;;;;;;;3.90;3.80;;;;;;;;;;4947918;28;20995;-73
2022/06/03 13:28:57;;;;;;;4.33;4.10;;;;;;;;;;4939238;28;20443;-73
2022/06/03 13:31:41;;;;;;;4.10;3.70;;;;;;;;;;4950139;28;20637;-74
2022/06/03 13:34:08;;;;;;;3.60;3.40;;;;;;;;;;4948414;28;20435;-72
2022/06/03 13:36:36;;;;;;;3.87;3.77;;;;;;;;;;4965523;28;20986;-72
2022/06/03 13:39:02;;;;;;;3.27;3.27;;;;;;;;;;4951504;28;20426;-71
2022/06/03 13:44:41;;;;;;;5.03;3.80;;;;;;;;;;4952264;28;20565;-72
2022/06/03 13:47:11;;;;;;;8.33;3.33;;;;;;;;;;4952231;28;20474;-72
2022/06/03 13:49:38;;;;;;;2.50;2.40;;;;;;;;;;4963887;28;20975;-73
2022/06/03 13:52:08;;;;;;;2.53;2.53;;;;;;;;;;4951111;28;20487;-73
2022/06/03 13:54:34;;;;;;;1.70;1.70;;;;;;;;;;4949766;28;20434;-75
2022/06/03 13:57:18;;;;;;;3.30;3.20;;;;;;;;;;4949884;28;20442;-74
2022/06/03 13:59:44;;;;;;;5.50;3.60;;;;;;;;;;4953509;28;20419;-73
2022/06/03 14:02:14;;;;;;;4.00;3.80;;;;;;;;;;4952571;28;20489;-75
2022/06/03 14:04:55;;;;;;;4.07;3.87;;;;;;;;;;4950207;29;21408;-74
2022/06/03 14:07:27;;;;;;;3.50;3.27;;;;;;;;;;4952840;28;20485;-73
2022/06/03 14:09:54;;;;;;;4.00;3.80;;;;;;;;;;4950755;28;20906;-73
2022/06/03 14:12:30;;;;;;;4.20;4.00;;;;;;;;;;4953300;28;20481;-73
2022/06/03 14:15:13;;;;;;;3.37;3.27;;;;;;;;;;4952916;28;20866;-74
2022/06/03 14:17:46;;;;;;;3.00;2.80;;;;;;;;;;4949964;29;20962;-73
2022/06/03 14:20:16;;;;;;;3.60;3.30;;;;;;;;;;4963991;28;20451;-75
2022/06/03 14:22:42;;;;;;;4.10;3.80;;;;;;;;;;4952334;28;20429;-74
2022/06/03 14:25:11;;;;;;;3.70;2.77;;;;;;;;;;4952085;28;20451;-74
2022/06/03 14:27:41;;;;;;;3.33;3.10;;;;;;;;;;4950219;28;20246;-73
2022/06/03 14:30:14;;;;;;;2.80;2.70;;;;;;;;;;4956711;28;20445;-73
2022/06/03 14:32:43;;;;;;;2.10;2.10;;;;;;;;;;4946014;29;20500;-73
2022/06/03 14:35:11;;;;;;;2.33;2.33;;;;;;;;;;4951897;28;20439;-73
2022/06/03 14:37:46;;;;;;;3.10;2.87;;;;;;;;;;4951206;28;20446;-73
2022/06/03 14:40:15;;;;;;;3.20;3.00;;;;;;;;;;4949643;28;20498;-72
2022/06/03 14:42:41;;;;;;;4.03;3.00;;;;;;;;;;4952739;28;20427;-73
2022/06/03 14:45:10;;;;;;;2.87;2.77;;;;;;;;;;4951861;28;20439;-73
2022/06/03 14:47:38;;;;;;;4.27;3.43;;;;;;;;;;4950412;28;21081;-72
2022/06/03 14:50:13;;;;;;;2.87;2.67;;;;;;;;;;4950333;28;20482;-73
2022/06/03 14:52:42;;;;;;;3.50;3.30;;;;;;;;;;4949868;28;20481;-73
2022/06/03 14:55:34;;;;;;;2.07;2.03;;;;;;;;;;4947992;28;20427;-73
2022/06/03 14:58:09;;;;;;;4.10;2.67;;;;;;;;;;4942442;28;20490;-73
2022/06/03 15:00:45;;;;;;;2.93;2.93;;;;;;;;;;4948384;28;20463;-73
2022/06/03 15:03:18;;;;;;;2.90;2.60;;;;;;;;;;4949097;28;20443;-74
2022/06/03 15:05:49;;;;;;;3.47;3.37;;;;;;;;;;4950699;28;20435;-73
2022/06/03 15:08:20;;;;;;;2.80;2.60;;;;;;;;;;4951151;28;20423;-73
2022/06/03 15:10:49;;;;;;;5.93;2.97;;;;;;;;;;4949551;28;20943;-73
2022/06/03 15:13:26;;;;;;;2.50;2.40;;;;;;;;;;4952192;28;20486;-74
2022/06/03 15:15:52;;;;;;;3.07;2.97;;;;;;;;;;4964680;28;20439;-74
2022/06/03 15:18:20;;;;;;;2.50;2.50;;;;;;;;;;4951356;28;20510;-74
2022/06/03 15:21:06;;;;;;;3.07;2.13;;;;;;;;;;4950213;28;20999;-72
2022/06/03 15:23:33;;;;;;;2.30;2.20;;;;;;;;;;4951224;28;20423;-72
2022/06/03 15:26:01;;;;;;;3.00;2.90;;;;;;;;;;4948856;28;20823;-73
2022/06/03 15:28:28;;;;;;;3.17;2.60;;;;;;;;;;4951407;28;20431;-73
2022/06/03 15:31:01;;;;;;;3.17;2.97;;;;;;;;;;4951291;28;20482;-73
2022/06/03 15:33:34;;;;;;;2.37;2.37;;;;;;;;;;4951275;28;20878;-74
2022/06/03 15:36:20;;;;;;;3.07;2.67;;;;;;;;;;4965095;28;20991;-74
2022/06/03 15:38:48;;;;;;;3.30;3.10;;;;;;;;;;4947115;28;20445;-72
2022/06/03 15:41:19;;;;;;;4.20;2.70;;;;;;;;;;4965153;28;20798;-73
2022/06/03 15:43:47;;;;;;;2.70;2.20;;;;;;;;;;4948703;28;20454;-72
2022/06/03 15:46:28;;;;;;;2.83;2.83;;;;;;;;;;4947957;28;20523;-73
2022/06/03 15:48:58;;;;;;;2.30;2.30;;;;;;;;;;4949058;28;20446;-73
2022/06/03 15:51:24;;;;;;;6.00;2.03;;;;;;;;;;4951679;28;21022;-74
2022/06/03 15:53:50;;;;;;;4.57;2.23;;;;;;;;;;4948620;28;20928;-73